sensor_id;sensor_type;location;lat;lon;timestamp;temperature;humidity
8910;DHT22;4490;49.072;8.804;2022-11-06T00:01:29;6.30;99.90
8910;DHT22;4490;49.072;8.804;2022-11-06T00:03:55;6.30;99.90
8910;DHT22;4490;49.072;8.804;2022-11-06T00:06:21;6.30;99.90
8910;DHT22;4490;49.072;8.804;2022-11-06T00:09:09;6.30;99.90
8910;DHT22;4490;49.072;8.804;2022-11-06T00:11:35;6.30;99.90
8910;DHT22;4490;49.072;8.804;2022-11-06T00:14:01;6.30;99.90
8910;DHT22;4490;49.072;8.804;2022-11-06T00:16:27;6.20;99.90
8910;DHT22;4490;49.072;8.804;2022-11-06T00:18:54;6.30;99.90
8910;DHT22;4490;49.072;8.804;2022-11-06T00:21:22;6.30;99.90
8910;DHT22;4490;49.072;8.804;2022-11-06T00:23:48;6.30;99.90
8910;DHT22;4490;49.072;8.804;2022-11-06T00:26:16;6.30;99.90
8910;DHT22;4490;49.072;8.804;2022-11-06T00:28:43;6.20;99.90
8910;DHT22;4490;49.072;8.804;2022-11-06T00:31:14;6.20;99.90
8910;DHT22;4490;49.072;8.804;2022-11-06T00:33:40;6.10;99.90
8910;DHT22;4490;49.072;8.804;2022-11-06T00:36:13;6.10;99.90
8910;DHT22;4490;49.072;8.804;2022-11-06T00:38:39;6.10;99.90
8910;DHT22;4490;49.072;8.804;2022-11-06T00:41:13;6.00;99.90
8910;DHT22;4490;49.072;8.804;2022-11-06T00:43:39;6.00;99.90
8910;DHT22;4490;49.072;8.804;2022-11-06T00:46:10;6.00;99.90
8910;DHT22;4490;49.072;8.804;2022-11-06T00:48:36;6.00;99.90
8910;DHT22;4490;49.072;8.804;2022-11-06T00:53:32;5.90;99.90
8910;DHT22;4490;49.072;8.804;2022-11-06T00:58:33;5.90;99.90
8910;DHT22;4490;49.072;8.804;2022-11-06T01:01:17;5.90;99.90
8910;DHT22;4490;49.072;8.804;2022-11-06T01:03:45;5.80;99.90
8910;DHT22;4490;49.072;8.804;2022-11-06T01:06:13;5.80;99.90
8910;DHT22;4490;49.072;8.804;2022-11-06T01:08:40;5.80;99.90
8910;DHT22;4490;49.072;8.804;2022-11-06T01:11:13;5.80;99.90
8910;DHT22;4490;49.072;8.804;2022-11-06T01:13:40;5.70;99.90
8910;DHT22;4490;49.072;8.804;2022-11-06T01:16:08;5.60;99.90
8910;DHT22;4490;49.072;8.804;2022-11-06T01:18:35;5.60;99.90
8910;DHT22;4490;49.072;8.804;2022-11-06T01:21:15;5.50;99.90
8910;DHT22;4490;49.072;8.804;2022-11-06T01:23:41;5.50;99.90
8910;DHT22;4490;49.072;8.804;2022-11-06T01:26:08;5.50;99.90
8910;DHT22;4490;49.072;8.804;2022-11-06T01:28:36;5.40;99.90
8910;DHT22;4490;49.072;8.804;2022-11-06T01:31:03;5.40;99.90
8910;DHT22;4490;49.072;8.804;2022-11-06T01:33:29;5.30;99.90
8910;DHT22;4490;49.072;8.804;2022-11-06T01:35:55;5.30;99.90
8910;DHT22;4490;49.072;8.804;2022-11-06T01:38:21;5.30;99.90
8910;DHT22;4490;49.072;8.804;2022-11-06T01:40:47;5.20;99.90
8910;DHT22;4490;49.072;8.804;2022-11-06T01:43:22;5.20;99.90
8910;DHT22;4490;49.072;8.804;2022-11-06T01:45:52;5.20;99.90
8910;DHT22;4490;49.072;8.804;2022-11-06T01:48:21;5.20;99.90
8910;DHT22;4490;49.072;8.804;2022-11-06T01:50:52;5.20;99.90
8910;DHT22;4490;49.072;8.804;2022-11-06T01:53:20;5.20;99.90
8910;DHT22;4490;49.072;8.804;2022-11-06T01:55:48;5.20;99.90
8910;DHT22;4490;49.072;8.804;2022-11-06T01:58:17;5.20;99.90
8910;DHT22;4490;49.072;8.804;2022-11-06T02:00:44;5.20;99.90
8910;DHT22;4490;49.072;8.804;2022-11-06T02:03:11;5.20;99.90
8910;DHT22;4490;49.072;8.804;2022-11-06T02:05:37;5.10;99.90
8910;DHT22;4490;49.072;8.804;2022-11-06T02:08:03;5.10;99.90
8910;DHT22;4490;49.072;8.804;2022-11-06T02:10:29;5.00;99.90
8910;DHT22;4490;49.072;8.804;2022-11-06T02:15:51;5.00;99.90
8910;DHT22;4490;49.072;8.804;2022-11-06T02:18:48;5.00;99.90
8910;DHT22;4490;49.072;8.804;2022-11-06T02:24:29;4.90;99.90
8910;DHT22;4490;49.072;8.804;2022-11-06T02:27:06;4.90;99.90
8910;DHT22;4490;49.072;8.804;2022-11-06T02:29:53;4.80;99.90
8910;DHT22;4490;49.072;8.804;2022-11-06T02:32:51;4.80;99.90
8910;DHT22;4490;49.072;8.804;2022-11-06T02:35:29;4.80;99.90
8910;DHT22;4490;49.072;8.804;2022-11-06T02:38:08;4.70;99.90
8910;DHT22;4490;49.072;8.804;2022-11-06T02:40:43;4.60;99.90
8910;DHT22;4490;49.072;8.804;2022-11-06T02:43:10;4.60;99.90
8910;DHT22;4490;49.072;8.804;2022-11-06T02:45:44;4.60;99.90
8910;DHT22;4490;49.072;8.804;2022-11-06T02:48:13;4.60;99.90
8910;DHT22;4490;49.072;8.804;2022-11-06T02:50:45;4.60;99.90
8910;DHT22;4490;49.072;8.804;2022-11-06T02:53:13;4.60;99.90
8910;DHT22;4490;49.072;8.804;2022-11-06T02:55:44;4.60;99.90
8910;DHT22;4490;49.072;8.804;2022-11-06T02:58:15;4.60;99.90
8910;DHT22;4490;49.072;8.804;2022-11-06T03:00:46;4.60;99.90
8910;DHT22;4490;49.072;8.804;2022-11-06T03:03:20;4.50;99.90
8910;DHT22;4490;49.072;8.804;2022-11-06T03:05:50;4.50;99.90
8910;DHT22;4490;49.072;8.804;2022-11-06T03:10:55;4.50;99.90
8910;DHT22;4490;49.072;8.804;2022-11-06T03:19:03;4.50;99.90
8910;DHT22;4490;49.072;8.804;2022-11-06T03:21:40;4.50;99.90
8910;DHT22;4490;49.072;8.804;2022-11-06T03:24:12;4.50;99.90
8910;DHT22;4490;49.072;8.804;2022-11-06T03:26:44;4.50;99.90
8910;DHT22;4490;49.072;8.804;2022-11-06T03:38:09;4.50;99.90
8910;DHT22;4490;49.072;8.804;2022-11-06T03:40:37;4.50;99.90
8910;DHT22;4490;49.072;8.804;2022-11-06T03:43:05;4.50;99.90
8910;DHT22;4490;49.072;8.804;2022-11-06T03:45:32;4.60;99.90
8910;DHT22;4490;49.072;8.804;2022-11-06T03:50:38;4.60;99.90
8910;DHT22;4490;49.072;8.804;2022-11-06T03:53:19;4.50;99.90
8910;DHT22;4490;49.072;8.804;2022-11-06T03:55:54;4.50;99.90
8910;DHT22;4490;49.072;8.804;2022-11-06T03:58:24;4.40;99.90
8910;DHT22;4490;49.072;8.804;2022-11-06T04:00:53;4.50;99.90
8910;DHT22;4490;49.072;8.804;2022-11-06T04:04:02;4.40;99.90
8910;DHT22;4490;49.072;8.804;2022-11-06T04:06:34;4.40;99.90
8910;DHT22;4490;49.072;8.804;2022-11-06T04:09:03;4.40;99.90
8910;DHT22;4490;49.072;8.804;2022-11-06T04:11:49;4.30;99.90
8910;DHT22;4490;49.072;8.804;2022-11-06T04:14:36;4.30;99.90
8910;DHT22;4490;49.072;8.804;2022-11-06T04:17:06;4.30;99.90
8910;DHT22;4490;49.072;8.804;2022-11-06T04:19:31;4.30;99.90
8910;DHT22;4490;49.072;8.804;2022-11-06T04:27:42;4.20;99.90
8910;DHT22;4490;49.072;8.804;2022-11-06T04:30:16;4.20;99.90
8910;DHT22;4490;49.072;8.804;2022-11-06T04:33:09;4.20;99.90
8910;DHT22;4490;49.072;8.804;2022-11-06T04:45:47;4.10;99.90
8910;DHT22;4490;49.072;8.804;2022-11-06T04:48:15;4.00;99.90
8910;DHT22;4490;49.072;8.804;2022-11-06T04:50:46;4.00;99.90
8910;DHT22;4490;49.072;8.804;2022-11-06T04:53:13;4.00;99.90
8910;DHT22;4490;49.072;8.804;2022-11-06T04:55:48;4.00;99.90
8910;DHT22;4490;49.072;8.804;2022-11-06T04:58:14;3.90;99.90
8910;DHT22;4490;49.072;8.804;2022-11-06T05:00:45;3.90;99.90
8910;DHT22;4490;49.072;8.804;2022-11-06T05:03:12;3.90;99.90
8910;DHT22;4490;49.072;8.804;2022-11-06T05:05:38;3.90;99.90
8910;DHT22;4490;49.072;8.804;2022-11-06T05:08:04;3.80;99.90
8910;DHT22;4490;49.072;8.804;2022-11-06T05:10:30;3.80;99.90
8910;DHT22;4490;49.072;8.804;2022-11-06T05:12:55;3.80;99.90
8910;DHT22;4490;49.072;8.804;2022-11-06T05:15:21;3.80;99.90
8910;DHT22;4490;49.072;8.804;2022-11-06T05:17:46;3.70;99.90
8910;DHT22;4490;49.072;8.804;2022-11-06T05:20:12;3.70;99.90
8910;DHT22;4490;49.072;8.804;2022-11-06T05:22:41;3.60;99.90
8910;DHT22;4490;49.072;8.804;2022-11-06T05:25:35;3.70;99.90
8910;DHT22;4490;49.072;8.804;2022-11-06T05:28:02;3.70;99.90
8910;DHT22;4490;49.072;8.804;2022-11-06T05:30:30;3.60;99.90
8910;DHT22;4490;49.072;8.804;2022-11-06T05:32:56;3.60;99.90
8910;DHT22;4490;49.072;8.804;2022-11-06T05:35:21;3.60;99.90
8910;DHT22;4490;49.072;8.804;2022-11-06T05:37:47;3.60;99.90
8910;DHT22;4490;49.072;8.804;2022-11-06T05:40:13;3.50;99.90
8910;DHT22;4490;49.072;8.804;2022-11-06T05:42:39;3.60;99.90
8910;DHT22;4490;49.072;8.804;2022-11-06T05:45:06;3.50;99.90
8910;DHT22;4490;49.072;8.804;2022-11-06T05:47:32;3.50;99.90
8910;DHT22;4490;49.072;8.804;2022-11-06T05:49:58;3.50;99.90
8910;DHT22;4490;49.072;8.804;2022-11-06T05:52:24;3.50;99.90
8910;DHT22;4490;49.072;8.804;2022-11-06T05:54:50;3.50;99.90
8910;DHT22;4490;49.072;8.804;2022-11-06T05:57:16;3.50;99.90
8910;DHT22;4490;49.072;8.804;2022-11-06T05:59:41;3.50;99.90
8910;DHT22;4490;49.072;8.804;2022-11-06T06:02:08;3.50;99.90
8910;DHT22;4490;49.072;8.804;2022-11-06T06:04:33;3.40;99.90
8910;DHT22;4490;49.072;8.804;2022-11-06T06:06:59;3.40;99.90
8910;DHT22;4490;49.072;8.804;2022-11-06T06:09:25;3.40;99.90
8910;DHT22;4490;49.072;8.804;2022-11-06T06:11:51;3.40;99.90
8910;DHT22;4490;49.072;8.804;2022-11-06T06:14:18;3.40;99.90
8910;DHT22;4490;49.072;8.804;2022-11-06T06:16:45;3.40;99.90
8910;DHT22;4490;49.072;8.804;2022-11-06T06:19:10;3.30;99.90
8910;DHT22;4490;49.072;8.804;2022-11-06T06:21:36;3.30;99.90
8910;DHT22;4490;49.072;8.804;2022-11-06T06:24:03;3.30;99.90
8910;DHT22;4490;49.072;8.804;2022-11-06T06:26:28;3.30;99.90
8910;DHT22;4490;49.072;8.804;2022-11-06T06:28:54;3.30;99.90
8910;DHT22;4490;49.072;8.804;2022-11-06T06:31:20;3.30;99.90
8910;DHT22;4490;49.072;8.804;2022-11-06T06:33:45;3.30;99.90
8910;DHT22;4490;49.072;8.804;2022-11-06T06:36:11;3.30;99.90
8910;DHT22;4490;49.072;8.804;2022-11-06T06:38:37;3.30;99.90
8910;DHT22;4490;49.072;8.804;2022-11-06T06:41:04;3.20;99.90
8910;DHT22;4490;49.072;8.804;2022-11-06T06:43:30;3.20;99.90
8910;DHT22;4490;49.072;8.804;2022-11-06T06:46:00;3.30;99.90
8910;DHT22;4490;49.072;8.804;2022-11-06T06:48:26;3.20;99.90
8910;DHT22;4490;49.072;8.804;2022-11-06T06:50:56;3.20;99.90
8910;DHT22;4490;49.072;8.804;2022-11-06T06:53:22;3.30;99.90
8910;DHT22;4490;49.072;8.804;2022-11-06T06:55:47;3.20;99.90
8910;DHT22;4490;49.072;8.804;2022-11-06T06:58:13;3.20;99.90
8910;DHT22;4490;49.072;8.804;2022-11-06T07:00:39;3.20;99.90
8910;DHT22;4490;49.072;8.804;2022-11-06T07:03:05;3.30;99.90
8910;DHT22;4490;49.072;8.804;2022-11-06T07:05:30;3.30;99.90
8910;DHT22;4490;49.072;8.804;2022-11-06T07:07:56;3.30;99.90
8910;DHT22;4490;49.072;8.804;2022-11-06T07:10:21;3.30;99.90
8910;DHT22;4490;49.072;8.804;2022-11-06T07:12:47;3.30;99.90
8910;DHT22;4490;49.072;8.804;2022-11-06T07:15:13;3.30;99.90
8910;DHT22;4490;49.072;8.804;2022-11-06T07:17:39;3.30;99.90
8910;DHT22;4490;49.072;8.804;2022-11-06T07:20:06;3.30;99.90
8910;DHT22;4490;49.072;8.804;2022-11-06T07:22:31;3.30;99.90
8910;DHT22;4490;49.072;8.804;2022-11-06T07:24:57;3.40;99.90
8910;DHT22;4490;49.072;8.804;2022-11-06T07:27:23;3.50;99.90
8910;DHT22;4490;49.072;8.804;2022-11-06T07:29:48;3.60;99.90
8910;DHT22;4490;49.072;8.804;2022-11-06T07:32:14;3.70;99.90
8910;DHT22;4490;49.072;8.804;2022-11-06T07:34:40;3.80;99.90
8910;DHT22;4490;49.072;8.804;2022-11-06T07:37:05;3.90;99.90
8910;DHT22;4490;49.072;8.804;2022-11-06T07:39:31;4.10;99.90
8910;DHT22;4490;49.072;8.804;2022-11-06T07:41:57;4.30;99.90
8910;DHT22;4490;49.072;8.804;2022-11-06T07:44:23;4.50;99.90
8910;DHT22;4490;49.072;8.804;2022-11-06T07:46:48;4.90;99.90
8910;DHT22;4490;49.072;8.804;2022-11-06T07:49:14;5.40;99.90
8910;DHT22;4490;49.072;8.804;2022-11-06T07:51:41;6.10;99.90
8910;DHT22;4490;49.072;8.804;2022-11-06T07:54:07;6.90;99.90
8910;DHT22;4490;49.072;8.804;2022-11-06T07:56:33;7.70;99.90
8910;DHT22;4490;49.072;8.804;2022-11-06T07:58:58;8.20;99.90
8910;DHT22;4490;49.072;8.804;2022-11-06T08:01:24;8.50;99.90
8910;DHT22;4490;49.072;8.804;2022-11-06T08:03:49;8.50;99.90
8910;DHT22;4490;49.072;8.804;2022-11-06T08:06:15;8.40;99.90
8910;DHT22;4490;49.072;8.804;2022-11-06T08:08:41;8.20;99.90
8910;DHT22;4490;49.072;8.804;2022-11-06T08:11:09;8.00;99.90
8910;DHT22;4490;49.072;8.804;2022-11-06T08:13:35;7.90;99.90
8910;DHT22;4490;49.072;8.804;2022-11-06T08:16:06;7.70;99.90
8910;DHT22;4490;49.072;8.804;2022-11-06T08:18:32;7.50;99.90
8910;DHT22;4490;49.072;8.804;2022-11-06T08:20:57;7.40;99.90
8910;DHT22;4490;49.072;8.804;2022-11-06T08:23:23;7.30;99.90
8910;DHT22;4490;49.072;8.804;2022-11-06T08:25:53;7.20;99.90
8910;DHT22;4490;49.072;8.804;2022-11-06T08:28:18;7.20;99.90
8910;DHT22;4490;49.072;8.804;2022-11-06T08:30:44;7.10;99.90
8910;DHT22;4490;49.072;8.804;2022-11-06T08:33:10;7.10;99.90
8910;DHT22;4490;49.072;8.804;2022-11-06T08:35:35;7.10;99.90
8910;DHT22;4490;49.072;8.804;2022-11-06T08:38:02;7.10;99.90
8910;DHT22;4490;49.072;8.804;2022-11-06T08:40:28;7.10;99.90
8910;DHT22;4490;49.072;8.804;2022-11-06T08:43:02;7.10;99.90
8910;DHT22;4490;49.072;8.804;2022-11-06T08:45:28;7.10;99.90
8910;DHT22;4490;49.072;8.804;2022-11-06T08:47:53;7.10;99.90
8910;DHT22;4490;49.072;8.804;2022-11-06T08:50:19;7.20;99.90
8910;DHT22;4490;49.072;8.804;2022-11-06T08:52:45;7.20;99.90
8910;DHT22;4490;49.072;8.804;2022-11-06T08:55:10;7.20;99.90
8910;DHT22;4490;49.072;8.804;2022-11-06T08:57:36;7.30;99.90
8910;DHT22;4490;49.072;8.804;2022-11-06T09:00:02;7.30;99.90
8910;DHT22;4490;49.072;8.804;2022-11-06T09:02:28;7.40;99.90
8910;DHT22;4490;49.072;8.804;2022-11-06T09:04:54;7.40;99.90
8910;DHT22;4490;49.072;8.804;2022-11-06T09:07:19;7.50;99.90
8910;DHT22;4490;49.072;8.804;2022-11-06T09:09:45;7.50;99.90
8910;DHT22;4490;49.072;8.804;2022-11-06T09:12:10;7.60;99.90
8910;DHT22;4490;49.072;8.804;2022-11-06T09:14:36;7.60;99.90
8910;DHT22;4490;49.072;8.804;2022-11-06T09:17:03;7.70;99.90
8910;DHT22;4490;49.072;8.804;2022-11-06T09:19:28;7.70;99.90
8910;DHT22;4490;49.072;8.804;2022-11-06T09:21:54;7.70;99.90
8910;DHT22;4490;49.072;8.804;2022-11-06T09:24:20;7.80;99.90
8910;DHT22;4490;49.072;8.804;2022-11-06T09:26:45;7.90;99.90
8910;DHT22;4490;49.072;8.804;2022-11-06T09:29:11;7.90;99.90
8910;DHT22;4490;49.072;8.804;2022-11-06T09:31:36;8.00;99.90
8910;DHT22;4490;49.072;8.804;2022-11-06T09:34:02;8.00;99.90
8910;DHT22;4490;49.072;8.804;2022-11-06T09:36:28;8.10;99.90
8910;DHT22;4490;49.072;8.804;2022-11-06T09:38:53;8.10;99.90
8910;DHT22;4490;49.072;8.804;2022-11-06T09:41:26;8.20;99.90
8910;DHT22;4490;49.072;8.804;2022-11-06T09:46:51;8.30;99.90
8910;DHT22;4490;49.072;8.804;2022-11-06T09:49:31;8.40;99.90
8910;DHT22;4490;49.072;8.804;2022-11-06T09:52:00;8.50;99.90
8910;DHT22;4490;49.072;8.804;2022-11-06T09:54:42;8.60;99.90
8910;DHT22;4490;49.072;8.804;2022-11-06T09:57:20;8.70;99.90
8910;DHT22;4490;49.072;8.804;2022-11-06T09:59:47;8.80;99.90
8910;DHT22;4490;49.072;8.804;2022-11-06T10:02:36;8.90;99.90
8910;DHT22;4490;49.072;8.804;2022-11-06T10:07:51;9.10;99.90
8910;DHT22;4490;49.072;8.804;2022-11-06T10:10:22;9.20;99.90
8910;DHT22;4490;49.072;8.804;2022-11-06T10:16:05;9.40;99.90
8910;DHT22;4490;49.072;8.804;2022-11-06T10:18:53;9.50;99.90
8910;DHT22;4490;49.072;8.804;2022-11-06T10:24:13;9.70;99.90
8910;DHT22;4490;49.072;8.804;2022-11-06T10:26:49;9.80;99.90
8910;DHT22;4490;49.072;8.804;2022-11-06T10:35:17;10.10;99.90
8910;DHT22;4490;49.072;8.804;2022-11-06T10:38:17;10.20;99.90
8910;DHT22;4490;49.072;8.804;2022-11-06T10:40:44;10.30;99.90
8910;DHT22;4490;49.072;8.804;2022-11-06T10:43:34;10.30;99.90
8910;DHT22;4490;49.072;8.804;2022-11-06T10:46:21;10.40;99.90
8910;DHT22;4490;49.072;8.804;2022-11-06T10:48:54;10.40;99.90
8910;DHT22;4490;49.072;8.804;2022-11-06T10:52:12;10.50;99.90
8910;DHT22;4490;49.072;8.804;2022-11-06T10:57:50;10.60;99.90
8910;DHT22;4490;49.072;8.804;2022-11-06T11:00:17;10.70;99.90
8910;DHT22;4490;49.072;8.804;2022-11-06T11:02:50;10.70;99.90
8910;DHT22;4490;49.072;8.804;2022-11-06T11:05:19;10.80;99.90
8910;DHT22;4490;49.072;8.804;2022-11-06T11:07:47;10.80;99.90
8910;DHT22;4490;49.072;8.804;2022-11-06T11:12:49;10.90;99.90
8910;DHT22;4490;49.072;8.804;2022-11-06T11:15:22;11.00;99.90
8910;DHT22;4490;49.072;8.804;2022-11-06T11:20:48;11.10;99.90
8910;DHT22;4490;49.072;8.804;2022-11-06T11:23:22;11.10;99.90
8910;DHT22;4490;49.072;8.804;2022-11-06T11:25:56;11.20;99.90
8910;DHT22;4490;49.072;8.804;2022-11-06T11:28:32;11.20;99.90
8910;DHT22;4490;49.072;8.804;2022-11-06T11:33:29;11.30;99.90
8910;DHT22;4490;49.072;8.804;2022-11-06T11:35:54;11.30;99.90
8910;DHT22;4490;49.072;8.804;2022-11-06T11:38:20;11.30;99.90
8910;DHT22;4490;49.072;8.804;2022-11-06T11:40:47;11.30;99.90
8910;DHT22;4490;49.072;8.804;2022-11-06T11:43:29;11.40;99.90
8910;DHT22;4490;49.072;8.804;2022-11-06T11:48:27;11.40;99.90
8910;DHT22;4490;49.072;8.804;2022-11-06T11:56:28;11.60;99.90
8910;DHT22;4490;49.072;8.804;2022-11-06T11:58:59;11.60;99.90
8910;DHT22;4490;49.072;8.804;2022-11-06T12:01:38;11.60;99.90
8910;DHT22;4490;49.072;8.804;2022-11-06T12:09:24;11.80;99.90
8910;DHT22;4490;49.072;8.804;2022-11-06T12:11:53;11.90;99.90
8910;DHT22;4490;49.072;8.804;2022-11-06T12:14:26;11.90;99.90
8910;DHT22;4490;49.072;8.804;2022-11-06T12:17:01;12.00;99.90
8910;DHT22;4490;49.072;8.804;2022-11-06T12:19:31;12.00;99.90
8910;DHT22;4490;49.072;8.804;2022-11-06T12:22:01;12.00;99.90
8910;DHT22;4490;49.072;8.804;2022-11-06T12:24:34;12.00;99.90
8910;DHT22;4490;49.072;8.804;2022-11-06T12:27:09;12.10;99.90
8910;DHT22;4490;49.072;8.804;2022-11-06T12:30:00;12.00;99.40
8910;DHT22;4490;49.072;8.804;2022-11-06T12:36:02;12.00;97.00
8910;DHT22;4490;49.072;8.804;2022-11-06T12:41:05;11.90;99.70
8910;DHT22;4490;49.072;8.804;2022-11-06T12:43:48;11.90;99.70
8910;DHT22;4490;49.072;8.804;2022-11-06T12:57:34;11.80;98.90
8910;DHT22;4490;49.072;8.804;2022-11-06T13:00:18;11.80;99.90
8910;DHT22;4490;49.072;8.804;2022-11-06T13:03:02;11.80;99.90
8910;DHT22;4490;49.072;8.804;2022-11-06T13:05:43;11.80;99.90
8910;DHT22;4490;49.072;8.804;2022-11-06T13:08:34;11.80;99.90
8910;DHT22;4490;49.072;8.804;2022-11-06T13:14:12;11.80;99.90
8910;DHT22;4490;49.072;8.804;2022-11-06T13:25:21;11.80;99.80
8910;DHT22;4490;49.072;8.804;2022-11-06T13:28:00;11.80;99.60
8910;DHT22;4490;49.072;8.804;2022-11-06T13:30:28;11.80;99.50
8910;DHT22;4490;49.072;8.804;2022-11-06T13:35:31;11.80;99.70
8910;DHT22;4490;49.072;8.804;2022-11-06T13:37:58;11.80;99.70
8910;DHT22;4490;49.072;8.804;2022-11-06T13:40:31;11.70;99.90
8910;DHT22;4490;49.072;8.804;2022-11-06T13:45:36;11.80;99.90
8910;DHT22;4490;49.072;8.804;2022-11-06T13:53:24;11.70;99.90
8910;DHT22;4490;49.072;8.804;2022-11-06T14:07:35;11.70;99.90
8910;DHT22;4490;49.072;8.804;2022-11-06T14:10:02;11.70;99.90
8910;DHT22;4490;49.072;8.804;2022-11-06T14:12:28;11.60;99.90
8910;DHT22;4490;49.072;8.804;2022-11-06T14:15:14;11.60;99.90
8910;DHT22;4490;49.072;8.804;2022-11-06T14:17:50;11.60;99.90
8910;DHT22;4490;49.072;8.804;2022-11-06T14:20:35;11.60;99.90
8910;DHT22;4490;49.072;8.804;2022-11-06T14:25:59;11.60;99.90
8910;DHT22;4490;49.072;8.804;2022-11-06T14:28:43;11.60;99.90
8910;DHT22;4490;49.072;8.804;2022-11-06T14:31:10;11.60;99.90
8910;DHT22;4490;49.072;8.804;2022-11-06T14:33:59;11.50;99.90
8910;DHT22;4490;49.072;8.804;2022-11-06T14:36:34;11.50;99.90
8910;DHT22;4490;49.072;8.804;2022-11-06T14:39:00;11.50;99.90
8910;DHT22;4490;49.072;8.804;2022-11-06T14:46:31;11.50;99.90
8910;DHT22;4490;49.072;8.804;2022-11-06T14:49:15;11.50;99.90
8910;DHT22;4490;49.072;8.804;2022-11-06T14:51:59;11.50;99.90
8910;DHT22;4490;49.072;8.804;2022-11-06T14:54:26;11.60;99.90
8910;DHT22;4490;49.072;8.804;2022-11-06T14:56:53;11.60;99.90
8910;DHT22;4490;49.072;8.804;2022-11-06T14:59:32;11.60;99.90
8910;DHT22;4490;49.072;8.804;2022-11-06T15:02:22;11.60;99.90
8910;DHT22;4490;49.072;8.804;2022-11-06T15:05:00;11.60;99.90
8910;DHT22;4490;49.072;8.804;2022-11-06T15:09:57;11.60;99.90
8910;DHT22;4490;49.072;8.804;2022-11-06T15:15:28;11.50;99.90
8910;DHT22;4490;49.072;8.804;2022-11-06T15:17:57;11.40;99.90
8910;DHT22;4490;49.072;8.804;2022-11-06T15:20:26;11.40;99.90
8910;DHT22;4490;49.072;8.804;2022-11-06T15:23:02;11.30;99.90
8910;DHT22;4490;49.072;8.804;2022-11-06T15:25:29;11.30;99.90
8910;DHT22;4490;49.072;8.804;2022-11-06T15:28:03;11.30;99.90
8910;DHT22;4490;49.072;8.804;2022-11-06T15:30:39;11.20;99.90
8910;DHT22;4490;49.072;8.804;2022-11-06T15:33:11;11.20;99.90
8910;DHT22;4490;49.072;8.804;2022-11-06T15:35:38;11.10;99.90
8910;DHT22;4490;49.072;8.804;2022-11-06T15:38:09;11.00;99.90
8910;DHT22;4490;49.072;8.804;2022-11-06T15:40:38;10.90;99.90
8910;DHT22;4490;49.072;8.804;2022-11-06T15:43:28;10.90;99.90
8910;DHT22;4490;49.072;8.804;2022-11-06T15:48:42;10.80;99.90
8910;DHT22;4490;49.072;8.804;2022-11-06T15:51:27;10.70;99.90
8910;DHT22;4490;49.072;8.804;2022-11-06T15:53:53;10.70;99.90
8910;DHT22;4490;49.072;8.804;2022-11-06T15:56:31;10.70;99.90
8910;DHT22;4490;49.072;8.804;2022-11-06T15:59:12;10.70;99.90
8910;DHT22;4490;49.072;8.804;2022-11-06T16:01:38;10.70;99.90
8910;DHT22;4490;49.072;8.804;2022-11-06T16:04:24;10.70;99.90
8910;DHT22;4490;49.072;8.804;2022-11-06T16:06:53;10.70;99.90
8910;DHT22;4490;49.072;8.804;2022-11-06T16:09:22;10.70;99.90
8910;DHT22;4490;49.072;8.804;2022-11-06T16:11:50;10.70;99.90
8910;DHT22;4490;49.072;8.804;2022-11-06T16:14:17;10.60;99.90
8910;DHT22;4490;49.072;8.804;2022-11-06T16:16:47;10.60;99.90
8910;DHT22;4490;49.072;8.804;2022-11-06T16:19:23;10.60;99.90
8910;DHT22;4490;49.072;8.804;2022-11-06T16:22:02;10.60;99.90
8910;DHT22;4490;49.072;8.804;2022-11-06T16:24:36;10.60;99.90
8910;DHT22;4490;49.072;8.804;2022-11-06T16:27:04;10.50;99.90
8910;DHT22;4490;49.072;8.804;2022-11-06T16:29:31;10.50;99.90
8910;DHT22;4490;49.072;8.804;2022-11-06T16:32:08;10.50;99.90
8910;DHT22;4490;49.072;8.804;2022-11-06T16:34:41;10.40;99.90
8910;DHT22;4490;49.072;8.804;2022-11-06T16:39:52;10.40;99.90
8910;DHT22;4490;49.072;8.804;2022-11-06T16:42:25;10.40;99.90
8910;DHT22;4490;49.072;8.804;2022-11-06T16:45:18;10.30;99.90
8910;DHT22;4490;49.072;8.804;2022-11-06T16:50:49;10.30;99.90
8910;DHT22;4490;49.072;8.804;2022-11-06T16:53:21;10.30;99.90
8910;DHT22;4490;49.072;8.804;2022-11-06T16:55:59;10.30;99.90
8910;DHT22;4490;49.072;8.804;2022-11-06T16:58:28;10.30;99.90
8910;DHT22;4490;49.072;8.804;2022-11-06T17:00:59;10.30;99.90
8910;DHT22;4490;49.072;8.804;2022-11-06T17:03:30;10.30;99.90
8910;DHT22;4490;49.072;8.804;2022-11-06T17:05:58;10.30;99.90
8910;DHT22;4490;49.072;8.804;2022-11-06T17:08:36;10.30;99.90
8910;DHT22;4490;49.072;8.804;2022-11-06T17:13:39;10.20;99.90
8910;DHT22;4490;49.072;8.804;2022-11-06T17:16:06;10.30;99.90
8910;DHT22;4490;49.072;8.804;2022-11-06T17:18:37;10.30;99.90
8910;DHT22;4490;49.072;8.804;2022-11-06T17:21:26;10.20;99.90
8910;DHT22;4490;49.072;8.804;2022-11-06T17:23:51;10.30;99.90
8910;DHT22;4490;49.072;8.804;2022-11-06T17:26:49;10.30;99.90
8910;DHT22;4490;49.072;8.804;2022-11-06T17:29:15;10.30;99.90
8910;DHT22;4490;49.072;8.804;2022-11-06T17:31:41;10.30;99.90
8910;DHT22;4490;49.072;8.804;2022-11-06T17:34:08;10.30;99.90
8910;DHT22;4490;49.072;8.804;2022-11-06T17:36:35;10.30;99.90
8910;DHT22;4490;49.072;8.804;2022-11-06T17:39:01;10.30;99.90
8910;DHT22;4490;49.072;8.804;2022-11-06T17:41:27;10.30;99.90
8910;DHT22;4490;49.072;8.804;2022-11-06T17:46:34;10.30;99.90
8910;DHT22;4490;49.072;8.804;2022-11-06T17:49:01;10.30;99.90
8910;DHT22;4490;49.072;8.804;2022-11-06T17:51:27;10.30;99.90
8910;DHT22;4490;49.072;8.804;2022-11-06T17:54:12;10.30;99.90
8910;DHT22;4490;49.072;8.804;2022-11-06T17:56:37;10.30;99.90
8910;DHT22;4490;49.072;8.804;2022-11-06T17:59:03;10.30;99.90
8910;DHT22;4490;49.072;8.804;2022-11-06T18:01:29;10.30;99.90
8910;DHT22;4490;49.072;8.804;2022-11-06T18:03:55;10.20;99.90
8910;DHT22;4490;49.072;8.804;2022-11-06T18:06:21;10.20;99.90
8910;DHT22;4490;49.072;8.804;2022-11-06T18:08:47;10.20;99.90
8910;DHT22;4490;49.072;8.804;2022-11-06T18:11:12;10.20;99.90
8910;DHT22;4490;49.072;8.804;2022-11-06T18:13:38;10.10;99.90
8910;DHT22;4490;49.072;8.804;2022-11-06T18:16:16;10.10;99.90
8910;DHT22;4490;49.072;8.804;2022-11-06T18:18:43;10.10;99.90
8910;DHT22;4490;49.072;8.804;2022-11-06T18:21:08;10.10;99.90
8910;DHT22;4490;49.072;8.804;2022-11-06T18:23:35;10.00;99.90
8910;DHT22;4490;49.072;8.804;2022-11-06T18:26:01;10.00;99.90
8910;DHT22;4490;49.072;8.804;2022-11-06T18:28:26;10.00;99.90
8910;DHT22;4490;49.072;8.804;2022-11-06T18:30:52;10.00;99.90
8910;DHT22;4490;49.072;8.804;2022-11-06T18:33:18;10.00;99.90
8910;DHT22;4490;49.072;8.804;2022-11-06T18:35:44;10.00;99.90
8910;DHT22;4490;49.072;8.804;2022-11-06T18:38:12;10.00;99.90
8910;DHT22;4490;49.072;8.804;2022-11-06T18:40:38;10.00;99.90
8910;DHT22;4490;49.072;8.804;2022-11-06T18:43:04;9.90;99.90
8910;DHT22;4490;49.072;8.804;2022-11-06T18:45:30;9.90;99.90
8910;DHT22;4490;49.072;8.804;2022-11-06T18:47:56;9.90;99.90
8910;DHT22;4490;49.072;8.804;2022-11-06T18:50:22;9.90;99.90
8910;DHT22;4490;49.072;8.804;2022-11-06T18:52:48;9.90;99.90
8910;DHT22;4490;49.072;8.804;2022-11-06T18:55:14;9.90;99.90
8910;DHT22;4490;49.072;8.804;2022-11-06T18:57:39;9.90;99.90
8910;DHT22;4490;49.072;8.804;2022-11-06T19:00:05;10.00;99.90
8910;DHT22;4490;49.072;8.804;2022-11-06T19:02:31;10.00;99.90
8910;DHT22;4490;49.072;8.804;2022-11-06T19:04:58;9.90;99.90
8910;DHT22;4490;49.072;8.804;2022-11-06T19:07:24;9.90;99.90
8910;DHT22;4490;49.072;8.804;2022-11-06T19:09:49;10.00;99.90
8910;DHT22;4490;49.072;8.804;2022-11-06T19:12:15;10.00;99.90
8910;DHT22;4490;49.072;8.804;2022-11-06T19:14:41;10.00;99.90
8910;DHT22;4490;49.072;8.804;2022-11-06T19:17:07;10.00;99.90
8910;DHT22;4490;49.072;8.804;2022-11-06T19:19:32;10.00;99.90